FW9019 Weather Reports


Display with metric or nautical units.
time (UTC)temp
F
wind
direction
speed
MPH
gust
MPH
rain 1hr
in
rain 24hr
in
rain mn
in
humidity
%
barometer
mb
20240623123035 73 146 3.0 6.0 0.00 0.38 0.38 89 1010.3
20240623122121 73 179 3.0 9.0 0.00 0.38 0.38 89 1010.5
20240623121025 72 185 4.0 8.0 0.01 0.38 0.38 89 1010.4
20240623120037 72 167 3.0 5.0 0.02 0.38 0.38 88 1010.5
20240623115049 72 142 3.0 5.0 0.02 0.38 0.38 88 1010.4
20240623114059 72 162 3.0 7.0 0.03 0.38 0.38 88 1010.3
20240623113109 72 165 3.0 7.0 0.05 0.38 0.38 88 1010.3
20240623112019 72 155 2.0 3.0 0.08 0.38 0.38 88 1010.2
20240623111101 72 162 3.0 6.0 0.16 0.37 0.37 88 1010.5
20240623110041 72 181 2.0 5.0 0.34 0.36 0.36 87 1010.5
20240623105052 72 154 2.0 6.0 0.35 0.36 0.36 87 1010.5
20240623104102 72 162 4.0 7.0 0.35 0.35 0.35 86 1010.6
20240623103114 73 173 3.0 6.0 0.33 0.33 0.33 86 1010.7
20240623102058 73 159 4.0 7.0 0.30 0.30 0.30 85 1011.2
20240623101033 74 165 3.0 8.0 0.21 0.21 0.21 81 1011.5
20240623100115 76 157 4.0 8.0 0.02 0.02 0.02 76 1011.1
20240623095055 79 132 5.0 11.0 0.01 0.01 0.01 70 1010.5
20240623094107 80 212 6.0 11.0 0.00 0.00 0.00 65 1009.9
20240623093117 80 135 4.0 7.0 0.00 0.00 0.00 66 1009.6
20240623092129 80 151 3.0 6.0 0.00 0.00 0.00 66 1009.3
20240623091108 80 182 5.0 10.0 0.00 0.00 0.00 66 1009.6
20240623090049 80 151 2.0 6.0 0.00 0.00 0.00 66 1009.9
20240623085059 80 153 2.0 6.0 0.00 0.00 0.00 66 1009.9
20240623084039 80 174 4.0 8.0 0.00 0.00 0.00 65 1010.1
20240623083020 80 157 4.0 7.0 0.00 0.00 0.00 65 1010.4
20240623082101 80 167 3.0 7.0 0.00 0.00 0.00 66 1010.3
20240623081114 80 177 4.0 9.0 0.00 0.00 0.00 65 1010.1
20240623080021 80 158 4.0 7.0 0.00 0.00 0.00 65 1010.1
20240623075032 80 155 3.0 9.0 0.00 0.00 0.00 66 1010.2
20240623074044 80 164 4.0 8.0 0.00 0.00 0.00 66 1010.4
20240623073025 80 165 4.0 7.0 0.00 0.00 0.00 66 1010.6
20240623072105 80 160 3.0 6.0 0.00 0.00 0.00 65 1010.7
20240623071045 80 157 3.0 6.0 0.00 0.00 0.00 65 1011.0
20240623070025 80 145 4.0 9.0 0.00 0.00 0.00 64 1011.2
20240623065036 80 170 4.0 8.0 0.00 0.00 0.00 64 1011.2
20240623064016 80 123 3.0 6.0 0.00 0.00 0.00 64 1011.5
20240623063058 80 154 2.0 3.0 0.00 0.00 0.00 64 1011.7
20240623062038 80 147 2.0 3.0 0.00 0.00 0.00 63 1012.0
20240623061049 80 149 3.0 11.0 0.00 0.00 0.00 63 1011.9
20240623060030 80 165 4.0 8.0 0.00 0.00 0.00 63 1011.9
20240623055111 80 125 3.0 6.0 0.00 0.00 0.00 62 1011.9
20240623054052 81 160 2.0 7.0 0.00 0.00 0.00 61 1012.1
20240623053106 81 162 2.0 5.0 0.00 0.00 0.00 61 1012.3
20240623052114 81 151 3.0 7.0 0.00 0.00 0.00 61 1012.2
20240623051023 81 190 3.0 7.0 0.00 0.00 0.00 61 1012.3
20240623050135 81 166 2.0 5.0 0.00 0.00 0.00 60 1012.2
20240623045044 81 146 2.0 5.0 0.00 0.00 0.00 60 1012.2
20240623044024 81 132 3.0 5.0 0.00 0.00 0.00 60 1012.2
20240623043035 81 150 4.0 11.0 0.00 0.00 0.00 61 1012.4
20240623042117 81 101 2.0 6.0 0.00 0.00 0.00 60 1012.4
20240623041057 82 151 3.0 5.0 0.00 0.00 0.00 60 1012.5
20240623040038 82 166 3.0 8.0 0.00 0.00 0.00 60 1012.6
20240623035048 82 144 2.0 3.0 0.00 0.00 0.00 59 1012.7
20240623034030 82 165 2.0 5.0 0.00 0.00 0.00 59 1012.7
20240623033039 82 182 2.0 5.0 0.00 0.00 0.00 59 1012.8
20240623032050 82 146 1.0 3.0 0.00 0.00 0.00 60 1013.0
20240623031030 83 164 2.0 3.0 0.00 0.00 0.00 59 1012.9
20240623030042 83 163 3.0 6.0 0.00 0.00 0.00 58 1013.2
20240623025052 82 144 1.0 3.0 0.00 0.00 0.00 59 1013.2
20240623024032 83 157 1.0 3.0 0.00 0.00 0.00 59 1013.2
20240623023044 83 152 2.0 5.0 0.00 0.00 0.00 58 1013.3
20240623022054 83 150 1.0 3.0 0.00 0.00 0.00 58 1013.2
20240623021105 83 140 1.0 1.0 0.00 0.00 0.00 57 1013.1
20240623020045 83 168 2.0 3.0 0.00 0.00 0.00 58 1013.0
20240623015057 84 135 2.0 3.0 0.00 0.00 0.00 57 1013.0
20240623014037 84 168 3.0 9.0 0.00 0.00 0.00 57 1012.9
20240623013119 84 128 2.0 5.0 0.00 0.00 0.00 57 1013.0
20240623012059 84 88 1.0 3.0 0.00 0.00 0.00 55 1013.0
20240623011039 85 148 1.0 6.0 0.00 0.00 0.00 55 1013.2
20240623010019 85 179 2.0 5.0 0.00 0.00 0.00 54 1013.3
20240623005101 85 150 1.0 3.0 0.00 0.00 0.00 54 1013.5
20240623004111 86 120 3.0 3.0 0.00 0.00 0.00 52 1013.6
20240623003052 86 156 3.0 8.0 0.00 0.00 0.00 52 1013.7
20240623002031 87 163 1.0 5.0 0.00 0.00 0.00 51 1013.9
20240623001114 87 164 2.0 6.0 0.00 0.00 0.00 50 1013.9
20240623000023 87 167 3.0 7.0 0.00 0.00 0.00 50 1014.0
20240622235104 87 168 3.0 7.0 0.00 0.00 0.00 48 1014.2
20240622234115 88 166 3.0 6.0 0.00 0.00 0.00 48 1014.2
20240622233056 88 167 4.0 6.0 0.00 0.00 0.00 49 1014.4
20240622232035 88 140 3.0 6.0 0.00 0.00 0.00 48 1014.5
20240622231117 88 158 4.0 6.0 0.00 0.00 0.00 47 1014.6
20240622230057 89 141 3.0 6.0 0.00 0.00 0.00 46 1014.6
20240622225038 89 150 3.0 6.0 0.00 0.00 0.00 46 1014.6
20240622224017 89 150 3.0 6.0 0.00 0.00 0.00 45 1014.8
20240622223059 89 144 2.0 6.0 0.00 0.00 0.00 47 1014.8
20240622222039 89 150 2.0 3.0 0.00 0.00 0.00 47 1015.0
20240622221019 89 160 5.0 11.0 0.00 0.00 0.00 45 1015.0
20240622220101 90 139 3.0 5.0 0.00 0.00 0.00 44 1015.1
20240622215041 89 119 3.0 7.0 0.00 0.00 0.00 45 1015.3
20240622214022 90 163 4.0 9.0 0.00 0.00 0.00 43 1015.4
20240622213036 90 137 4.0 9.0 0.00 0.00 0.00 44 1015.5
20240622212115 91 154 4.0 6.0 0.00 0.00 0.00 44 1015.5
20240622211055 90 166 5.0 10.0 0.00 0.00 0.00 43 1015.6
20240622210136 91 168 6.0 9.0 0.00 0.00 0.00 45 1015.6
20240622205046 91 170 4.0 10.0 0.00 0.00 0.00 45 1016.0
20240622204025 91 132 3.0 6.0 0.00 0.00 0.00 46 1016.0
20240622203107 89 156 5.0 8.0 0.00 0.00 0.00 46 1016.1
20240622202047 89 153 4.0 8.0 0.00 0.00 0.00 47 1016.3
20240622201027 89 146 3.0 6.0 0.00 0.00 0.00 47 1016.4
20240622200109 90 152 4.0 8.0 0.00 0.00 0.00 46 1016.5
20240622195049 90 153 5.0 9.0 0.00 0.00 0.00 45 1016.7
20240622194029 90 158 4.0 9.0 0.00 0.00 0.00 46 1016.8
20240622193111 89 166 4.0 13.0 0.00 0.00 0.00 45 1017.0
20240622192051 91 128 4.0 7.0 0.00 0.00 0.00 45 1017.0
20240622191102 90 129 4.0 9.0 0.00 0.00 0.00 46 1017.1
20240622190114 90 157 4.0 9.0 0.00 0.00 0.00 46 1017.1
20240622185054 88 138 2.0 6.0 0.00 0.00 0.00 51 1017.3
20240622184034 89 156 5.0 14.0 0.00 0.00 0.00 48 1017.3
20240622183115 89 161 4.0 7.0 0.00 0.00 0.00 48 1017.4
20240622182055 89 139 3.0 7.0 0.00 0.00 0.00 47 1017.4
20240622181035 89 172 5.0 9.0 0.00 0.00 0.00 49 1017.5
20240622180117 88 161 3.0 6.0 0.00 0.00 0.00 51 1017.6
20240622175027 88 177 4.0 7.0 0.00 0.00 0.00 50 1017.8
20240622174109 88 153 3.0 6.0 0.00 0.00 0.00 51 1017.8
20240622173049 88 166 4.0 7.0 0.00 0.00 0.00 52 1017.9
20240622172029 89 153 3.0 5.0 0.00 0.00 0.00 50 1018.1
20240622171111 89 159 6.0 11.0 0.00 0.00 0.00 49 1018.2
20240622170051 88 169 4.0 9.0 0.00 0.00 0.00 51 1018.3
20240622165031 88 158 3.0 7.0 0.00 0.00 0.00 51 1018.6
20240622164113 87 172 4.0 6.0 0.00 0.00 0.00 53 1018.6
20240622163052 87 166 3.0 6.0 0.00 0.00 0.00 53 1018.8
20240622162033 87 155 3.0 7.0 0.00 0.00 0.00 53 1018.9
20240622161145 88 167 4.0 8.0 0.00 0.00 0.00 53 1018.9
20240622160023 87 165 4.0 9.0 0.00 0.00 0.00 53 1019.1
20240622155105 86 174 4.0 7.0 0.00 0.00 0.00 54 1019.1
20240622154045 86 177 6.0 11.0 0.00 0.00 0.00 53 1019.3
20240622153025 86 174 4.0 7.0 0.00 0.00 0.00 52 1019.6
20240622152037 87 162 4.0 8.0 0.00 0.00 0.00 53 1019.7
20240622151119 86 167 3.0 7.0 0.00 0.00 0.00 54 1019.6
20240622150027 86 180 5.0 8.0 0.00 0.00 0.00 55 1019.7
20240622145039 86 177 4.0 7.0 0.00 0.00 0.00 55 1019.8
20240622144019 86 147 3.0 7.0 0.00 0.00 0.00 56 1020.0
20240622143029 86 157 2.0 3.0 0.00 0.00 0.00 57 1019.9
20240622142041 85 146 2.0 7.0 0.00 0.00 0.00 59 1020.0
20240622141020 84 147 3.0 6.0 0.00 0.00 0.00 58 1020.2
20240622140102 84 154 4.0 8.0 0.00 0.00 0.00 58 1020.2
20240622135114 84 160 4.0 6.0 0.00 0.00 0.00 59 1020.2
20240622134053 84 129 2.0 6.0 0.00 0.00 0.00 59 1020.2
20240622133035 84 125 2.0 5.0 0.00 0.00 0.00 60 1020.4
20240622132115 83 165 3.0 7.0 0.00 0.00 0.00 61 1020.3
20240622131024 82 146 3.0 6.0 0.00 0.00 0.00 62 1020.3
20240622130035 82 146 2.0 5.0 0.00 0.00 0.00 63 1020.3
20240622125046 81 158 1.0 2.0 0.00 0.00 0.00 65 1020.3
20240622124026 80 144 1.0 2.0 0.00 0.00 0.00 68 1020.6